createdAt,value
2023-04-15T00:00:41.056Z,22.33
2023-04-15T00:03:09.917Z,22.34
2023-04-15T00:05:37.525Z,22.33
2023-04-15T00:08:05.416Z,22.33
2023-04-15T00:10:31.893Z,22.33
2023-04-15T00:12:58.444Z,22.32
2023-04-15T00:15:24.891Z,22.33
2023-04-15T00:17:52.147Z,22.33
2023-04-15T00:20:18.718Z,22.32
2023-04-15T00:22:45.251Z,22.33
2023-04-15T00:25:11.757Z,22.34
2023-04-15T00:27:38.586Z,22.33
2023-04-15T00:30:05.456Z,22.35
2023-04-15T00:32:32.007Z,22.34
2023-04-15T00:34:58.546Z,22.34
2023-04-15T00:37:25.069Z,22.34
2023-04-15T00:39:51.627Z,22.33
2023-04-15T00:42:18.137Z,22.33
2023-04-15T00:44:44.720Z,22.33
2023-04-15T00:47:11.397Z,22.34
2023-04-15T00:49:38.091Z,22.34
2023-04-15T00:52:04.803Z,22.33
2023-04-15T00:54:31.285Z,22.34
2023-04-15T00:56:57.996Z,22.33
2023-04-15T00:59:24.443Z,22.34
2023-04-15T01:01:51.844Z,22.34
2023-04-15T01:04:18.675Z,22.34
2023-04-15T01:06:45.245Z,22.33
2023-04-15T01:09:12.465Z,22.33
2023-04-15T01:11:39.063Z,22.32
2023-04-15T01:14:08.489Z,22.34
2023-04-15T01:16:35.234Z,22.35
2023-04-15T01:19:02.070Z,22.35
2023-04-15T01:21:29.877Z,22.35
2023-04-15T01:23:57.897Z,22.34
2023-04-15T01:26:24.646Z,22.34
2023-04-15T01:28:51.719Z,22.34
2023-04-15T01:31:18.376Z,22.35
2023-04-15T01:33:44.842Z,22.35
2023-04-15T01:36:14.406Z,22.34
2023-04-15T01:38:41.232Z,22.34
2023-04-15T01:41:08.261Z,22.34
2023-04-15T01:43:36.341Z,22.35
2023-04-15T01:46:03.259Z,22.33
2023-04-15T01:48:32.401Z,22.34
2023-04-15T01:50:58.952Z,22.34
2023-04-15T01:53:25.843Z,22.33
2023-04-15T01:55:52.582Z,22.34
2023-04-15T01:58:19.274Z,22.33
2023-04-15T02:00:46.008Z,22.33
2023-04-15T02:03:12.534Z,22.33
2023-04-15T02:05:39.294Z,22.33
2023-04-15T02:08:06.053Z,22.33
2023-04-15T02:10:32.615Z,22.33
2023-04-15T02:12:59.082Z,22.33
2023-04-15T02:15:28.381Z,22.33
2023-04-15T02:17:55.412Z,22.33
2023-04-15T02:20:22.514Z,22.32
2023-04-15T02:22:49.211Z,22.31
2023-04-15T02:25:17.087Z,22.31
2023-04-15T02:27:44.408Z,22.30
2023-04-15T02:30:11.071Z,22.32
2023-04-15T02:32:38.095Z,22.31
2023-04-15T02:35:05.731Z,22.31
2023-04-15T02:37:32.546Z,22.31
2023-04-15T02:40:00.940Z,22.32
2023-04-15T02:42:28.771Z,22.32
2023-04-15T02:44:55.545Z,22.31
2023-04-15T02:47:28.623Z,22.31
2023-04-15T02:49:55.121Z,22.31
2023-04-15T02:52:21.656Z,22.30
2023-04-15T02:54:48.179Z,22.31
2023-04-15T02:57:14.777Z,22.30
2023-04-15T02:59:41.367Z,22.31
2023-04-15T03:02:08.546Z,22.31
2023-04-15T03:04:35.180Z,22.31
2023-04-15T03:07:01.834Z,22.31
2023-04-15T03:09:28.495Z,22.31
2023-04-15T03:11:56.852Z,22.31
2023-04-15T03:14:23.898Z,22.30
2023-04-15T03:16:51.864Z,22.31
2023-04-15T03:19:18.528Z,22.30
2023-04-15T03:21:45.136Z,22.30
2023-04-15T03:24:11.680Z,22.30
2023-04-15T03:26:38.186Z,22.30
2023-04-15T03:29:10.815Z,22.30
2023-04-15T03:31:39.276Z,22.31
2023-04-15T03:34:05.751Z,22.31
2023-04-15T03:36:33.269Z,22.32
2023-04-15T03:39:00.072Z,22.31
2023-04-15T03:41:26.823Z,22.31
2023-04-15T03:43:53.392Z,22.30
2023-04-15T03:46:19.895Z,22.31
2023-04-15T03:48:46.974Z,22.30
2023-04-15T03:51:13.463Z,22.31
2023-04-15T03:53:39.957Z,22.30
2023-04-15T03:56:06.515Z,22.30
2023-04-15T03:58:32.987Z,22.29
2023-04-15T04:00:59.526Z,22.30
2023-04-15T04:03:26.430Z,22.30
2023-04-15T04:05:53.595Z,22.29
2023-04-15T04:08:21.627Z,22.29
2023-04-15T04:10:48.140Z,22.30
2023-04-15T04:13:14.601Z,22.30
2023-04-15T04:15:41.328Z,22.30
2023-04-15T04:18:07.814Z,22.30
2023-04-15T04:20:34.317Z,22.30
2023-04-15T04:23:00.826Z,22.31
2023-04-15T04:25:27.317Z,22.30
2023-04-15T04:27:54.005Z,22.31
2023-04-15T04:30:20.534Z,22.31
2023-04-15T04:32:47.039Z,22.32
2023-04-15T04:35:13.610Z,22.31
2023-04-15T04:37:40.517Z,22.31
2023-04-15T04:40:08.084Z,22.32
2023-04-15T04:42:34.613Z,22.29
2023-04-15T04:45:01.338Z,22.30
2023-04-15T04:47:28.210Z,22.31
2023-04-15T04:49:55.067Z,22.30
2023-04-15T04:52:21.834Z,22.31
2023-04-15T04:54:48.396Z,22.30
2023-04-15T04:57:14.902Z,22.31
2023-04-15T04:59:41.816Z,22.32
2023-04-15T05:02:08.372Z,22.32
2023-04-15T05:04:35.378Z,22.36
2023-04-15T05:07:02.197Z,22.41
2023-04-15T05:09:29.853Z,22.47
2023-04-15T05:11:56.631Z,22.51
2023-04-15T05:14:23.452Z,22.51
2023-04-15T05:16:49.973Z,22.50
2023-04-15T05:19:16.467Z,22.48
2023-04-15T05:21:42.931Z,22.48
2023-04-15T05:24:09.404Z,22.46
2023-04-15T05:26:35.960Z,22.44
2023-04-15T05:29:02.747Z,22.43
2023-04-15T05:31:29.480Z,22.41
2023-04-15T05:33:56.211Z,22.39
2023-04-15T05:36:22.648Z,22.39
2023-04-15T05:38:49.382Z,22.38
2023-04-15T05:41:18.399Z,22.37
2023-04-15T05:43:46.434Z,22.36
2023-04-15T05:46:13.099Z,22.35
2023-04-15T05:48:39.821Z,22.34
2023-04-15T05:51:06.440Z,22.34
2023-04-15T05:53:32.994Z,22.32
2023-04-15T05:55:59.460Z,22.29
2023-04-15T05:58:26.013Z,22.25
2023-04-15T06:00:52.511Z,22.21
2023-04-15T06:03:19.138Z,22.21
2023-04-15T06:05:45.664Z,22.20
2023-04-15T06:08:12.490Z,22.21
2023-04-15T06:10:38.978Z,22.21
2023-04-15T06:13:05.548Z,22.20
2023-04-15T06:15:32.207Z,22.21
2023-04-15T06:17:58.756Z,22.21
2023-04-15T06:20:25.480Z,22.21
2023-04-15T06:22:52.018Z,22.21
2023-04-15T06:25:18.487Z,22.22
2023-04-15T06:27:44.955Z,22.24
2023-04-15T06:30:12.067Z,22.25
2023-04-15T06:32:38.677Z,22.24
2023-04-15T06:35:05.497Z,22.26
2023-04-15T06:37:32.642Z,22.26
2023-04-15T06:39:59.359Z,22.29
2023-04-15T06:42:25.832Z,22.30
2023-04-15T06:44:52.380Z,22.31
2023-04-15T06:47:19.790Z,22.31
2023-04-15T06:49:46.405Z,22.31
2023-04-15T06:52:13.041Z,22.33
2023-04-15T06:54:39.513Z,22.31
2023-04-15T06:57:07.181Z,22.28
2023-04-15T06:59:33.670Z,22.27
2023-04-15T07:02:00.633Z,22.27
2023-04-15T07:04:27.814Z,22.28
2023-04-15T07:06:55.544Z,22.30
2023-04-15T07:09:22.622Z,22.32
2023-04-15T07:11:49.511Z,22.33
2023-04-15T07:14:16.048Z,22.35
2023-04-15T07:16:43.012Z,22.38
2023-04-15T07:19:09.537Z,22.39
2023-04-15T07:21:36.144Z,22.41
2023-04-15T07:24:02.602Z,22.42
2023-04-15T07:26:29.093Z,22.42
2023-04-15T07:28:55.555Z,22.43
2023-04-15T07:31:22.133Z,22.44
2023-04-15T07:33:48.592Z,22.46
2023-04-15T07:36:15.412Z,22.46
2023-04-15T07:38:42.542Z,22.48
2023-04-15T07:41:09.484Z,22.50
2023-04-15T07:43:35.940Z,22.53
2023-04-15T07:46:02.538Z,22.57
2023-04-15T07:48:29.108Z,22.60
2023-04-15T07:50:55.592Z,22.63
2023-04-15T07:53:22.057Z,22.64
2023-04-15T07:55:48.676Z,22.67
2023-04-15T07:58:15.129Z,22.70
2023-04-15T08:00:41.653Z,22.77
2023-04-15T08:03:08.344Z,22.82
2023-04-15T08:05:35.132Z,22.87
2023-04-15T08:08:01.639Z,22.93
2023-04-15T08:10:29.247Z,22.97
2023-04-15T08:12:57.615Z,23.01
2023-04-15T08:15:24.270Z,23.05
2023-04-15T08:17:51.140Z,23.08
2023-04-15T08:20:17.740Z,23.14
2023-04-15T08:22:44.207Z,23.17
2023-04-15T08:25:10.717Z,23.22
2023-04-15T08:27:37.540Z,23.25
2023-04-15T08:30:05.219Z,23.29
2023-04-15T08:32:31.982Z,23.31
2023-04-15T08:34:58.699Z,23.35
2023-04-15T08:37:25.165Z,23.37
2023-04-15T08:39:51.631Z,23.41
2023-04-15T08:42:18.425Z,23.45
2023-04-15T08:44:44.949Z,23.49
2023-04-15T08:47:12.678Z,23.53
2023-04-15T08:49:39.974Z,23.57
2023-04-15T08:52:06.619Z,23.60
2023-04-15T08:54:33.127Z,23.63
2023-04-15T08:56:59.595Z,23.67
2023-04-15T08:59:26.232Z,23.72
2023-04-15T09:01:52.973Z,23.74
2023-04-15T09:04:19.777Z,23.77
2023-04-15T09:06:46.686Z,23.82
2023-04-15T09:09:14.384Z,23.87
2023-04-15T09:11:41.339Z,23.91
2023-04-15T09:14:08.202Z,23.91
2023-04-15T09:16:53.321Z,23.96
2023-04-15T09:19:23.261Z,24.07
2023-04-15T09:21:51.136Z,24.18
2023-04-15T09:24:17.784Z,24.29
2023-04-15T09:26:44.246Z,24.39
2023-04-15T09:29:13.423Z,24.50
2023-04-15T09:31:40.618Z,24.58
2023-04-15T09:34:07.174Z,24.63
2023-04-15T09:36:54.035Z,24.68
2023-04-15T09:39:20.580Z,24.72
2023-04-15T09:41:47.722Z,24.75
2023-04-15T09:44:26.707Z,24.79
2023-04-15T09:46:53.549Z,24.81
2023-04-15T09:49:20.867Z,24.85
2023-04-15T09:52:01.431Z,24.89
2023-04-15T09:54:38.151Z,24.92
2023-04-15T09:57:05.372Z,24.95
2023-04-15T09:59:31.852Z,24.99
2023-04-15T10:01:58.504Z,25.04
2023-04-15T10:04:25.405Z,25.06
2023-04-15T10:06:52.028Z,25.07
2023-04-15T10:09:18.572Z,25.12
2023-04-15T10:11:45.094Z,25.17
2023-04-15T10:14:11.537Z,25.22
2023-04-15T10:16:38.010Z,25.30
2023-04-15T10:19:04.502Z,25.34
2023-04-15T10:21:31.142Z,25.39
2023-04-15T10:23:58.358Z,25.44
2023-04-15T10:26:24.935Z,25.46
2023-04-15T10:28:51.442Z,25.48
2023-04-15T10:31:18.508Z,25.49
2023-04-15T10:33:45.082Z,25.49
2023-04-15T10:36:11.627Z,25.50
2023-04-15T10:38:39.421Z,25.51
2023-04-15T10:41:12.151Z,25.51
2023-04-15T10:43:38.619Z,25.51
2023-04-15T10:46:06.146Z,25.52
2023-04-15T10:48:33.093Z,25.51
2023-04-15T10:51:02.513Z,25.51
2023-04-15T10:53:29.577Z,25.51
2023-04-15T10:55:56.496Z,25.50
2023-04-15T10:58:26.328Z,25.50
2023-04-15T11:00:53.507Z,25.50
2023-04-15T11:03:39.438Z,25.49
2023-04-15T11:06:06.992Z,25.48
2023-04-15T11:08:52.210Z,25.46
2023-04-15T11:11:18.702Z,25.45
2023-04-15T11:13:48.789Z,25.44
2023-04-15T11:16:15.369Z,25.45
2023-04-15T11:18:41.839Z,25.46
2023-04-15T11:21:09.398Z,25.46
2023-04-15T11:23:39.995Z,25.48
2023-04-15T11:26:15.366Z,25.50
2023-04-15T11:28:42.956Z,25.51
2023-04-15T11:31:16.547Z,25.52
2023-04-15T11:33:54.122Z,25.54
2023-04-15T11:36:21.016Z,25.55
2023-04-15T11:38:47.555Z,25.57
2023-04-15T11:41:14.198Z,25.58
2023-04-15T11:43:41.443Z,25.58
2023-04-15T11:46:08.448Z,25.57
2023-04-15T11:48:36.007Z,25.55
2023-04-15T11:51:03.394Z,25.52
2023-04-15T11:53:56.865Z,25.52
2023-04-15T11:56:24.572Z,25.49
2023-04-15T11:59:03.000Z,25.49
2023-04-15T12:01:32.738Z,25.47
2023-04-15T12:04:01.580Z,25.46
2023-04-15T12:06:32.671Z,25.46
2023-04-15T12:09:00.484Z,25.46
2023-04-15T12:11:26.940Z,25.44
2023-04-15T12:13:54.540Z,25.45
2023-04-15T12:16:21.221Z,25.46
2023-04-15T12:18:48.257Z,25.47
2023-04-15T12:21:14.806Z,25.47
2023-04-15T12:23:54.036Z,25.48
2023-04-15T12:26:49.852Z,25.49
2023-04-15T12:29:17.381Z,25.49
2023-04-15T12:31:56.988Z,25.50
2023-04-15T12:34:33.558Z,25.51
2023-04-15T12:37:01.132Z,25.50
2023-04-15T12:39:30.531Z,25.52
2023-04-15T12:41:57.506Z,25.53
2023-04-15T12:44:24.068Z,25.53
2023-04-15T12:46:51.029Z,25.52
2023-04-15T12:49:20.751Z,25.49
2023-04-15T12:51:48.750Z,25.48
2023-04-15T12:54:16.828Z,25.45
2023-04-15T12:56:44.153Z,25.43
2023-04-15T12:59:10.981Z,25.39
2023-04-15T13:01:37.521Z,25.34
2023-04-15T13:04:04.436Z,25.30
2023-04-15T13:06:33.347Z,25.31
2023-04-15T13:09:01.722Z,25.33
2023-04-15T13:11:30.980Z,25.37
2023-04-15T13:13:57.575Z,25.37
2023-04-15T13:16:24.606Z,25.39
2023-04-15T13:18:51.116Z,25.40
2023-04-15T13:21:17.729Z,25.44
2023-04-15T13:23:44.184Z,25.45
2023-04-15T13:26:10.692Z,25.46
2023-04-15T13:28:37.255Z,25.46
2023-04-15T13:31:03.881Z,25.46
2023-04-15T13:33:30.469Z,25.47
2023-04-15T13:35:56.989Z,25.46
2023-04-15T13:38:24.280Z,25.46
2023-04-15T13:40:50.988Z,25.46
2023-04-15T13:43:17.567Z,25.45
2023-04-15T13:45:44.355Z,25.43
2023-04-15T13:48:10.987Z,25.44
2023-04-15T13:50:38.137Z,25.43
2023-04-15T13:53:05.681Z,25.41
2023-04-15T13:55:32.288Z,25.39
2023-04-15T13:57:58.768Z,25.40
2023-04-15T14:00:25.473Z,25.39
2023-04-15T14:02:52.258Z,25.37
2023-04-15T14:05:18.974Z,25.37
2023-04-15T14:07:45.420Z,25.36
2023-04-15T14:10:11.893Z,25.35
2023-04-15T14:12:38.930Z,25.35
2023-04-15T14:15:05.662Z,25.35
2023-04-15T14:17:33.062Z,25.35
2023-04-15T14:19:59.602Z,25.35
2023-04-15T14:22:26.273Z,25.34
2023-04-15T14:24:54.143Z,25.35
2023-04-15T14:27:20.788Z,25.35
2023-04-15T14:29:47.263Z,25.35
2023-04-15T14:32:14.434Z,25.31
2023-04-15T14:34:42.473Z,25.28
2023-04-15T14:37:08.908Z,25.29
2023-04-15T14:39:35.500Z,25.30
2023-04-15T14:42:02.343Z,25.30
2023-04-15T14:44:28.848Z,25.30
2023-04-15T14:46:55.820Z,25.30
2023-04-15T14:52:07.071Z,25.31
2023-04-15T14:54:33.687Z,25.28
2023-04-15T14:57:01.699Z,25.25
2023-04-15T14:59:28.196Z,25.26
2023-04-15T15:01:54.836Z,25.26
2023-04-15T15:04:21.466Z,25.26
2023-04-15T15:06:49.240Z,25.27
2023-04-15T15:09:16.092Z,25.27
2023-04-15T15:11:42.532Z,25.29
2023-04-15T15:14:09.043Z,25.28
2023-04-15T15:16:35.847Z,25.28
2023-04-15T15:19:02.644Z,25.27
2023-04-15T15:21:29.273Z,25.24
2023-04-15T15:23:55.740Z,25.21
2023-04-15T15:26:22.537Z,25.21
2023-04-15T15:28:50.741Z,25.20
2023-04-15T15:31:17.277Z,25.21
2023-04-15T15:33:43.747Z,25.20
2023-04-15T15:36:10.996Z,25.19
2023-04-15T15:38:37.458Z,25.19
2023-04-15T15:41:04.296Z,25.17
2023-04-15T15:43:30.940Z,25.16
2023-04-15T15:45:57.456Z,25.15
2023-04-15T15:48:23.891Z,25.16
2023-04-15T15:50:50.363Z,25.15
2023-04-15T15:53:20.692Z,25.14
2023-04-15T15:55:48.137Z,25.10
2023-04-15T15:58:14.716Z,25.05
2023-04-15T16:00:41.531Z,25.00
2023-04-15T16:03:08.141Z,25.00
2023-04-15T16:05:35.376Z,25.00
2023-04-15T16:08:02.035Z,25.01
2023-04-15T16:10:28.848Z,25.02
2023-04-15T16:12:55.708Z,25.01
2023-04-15T16:15:22.863Z,25.02
2023-04-15T16:17:49.445Z,25.04
2023-04-15T16:20:16.122Z,25.05
2023-04-15T16:22:43.050Z,25.05
2023-04-15T16:25:09.678Z,25.06
2023-04-15T16:27:54.217Z,25.06
2023-04-15T16:30:23.185Z,25.07
2023-04-15T16:32:49.677Z,25.07
2023-04-15T16:35:16.831Z,25.06
2023-04-15T16:37:43.299Z,25.06
2023-04-15T16:40:10.039Z,25.06
2023-04-15T16:42:36.806Z,25.05
2023-04-15T16:45:03.300Z,25.06
2023-04-15T16:47:29.901Z,25.06
2023-04-15T16:49:56.415Z,25.03
2023-04-15T16:52:22.894Z,25.03
2023-04-15T16:54:49.373Z,25.01
2023-04-15T16:57:15.892Z,25.01
2023-04-15T16:59:42.414Z,25.08
2023-04-15T17:02:10.446Z,25.14
2023-04-15T17:04:37.138Z,25.17
2023-04-15T17:07:05.176Z,25.20
2023-04-15T17:09:31.662Z,25.22
2023-04-15T17:11:58.550Z,25.20
2023-04-15T17:14:25.140Z,25.20
2023-04-15T17:16:51.651Z,25.20
2023-04-15T17:19:18.113Z,25.19
2023-04-15T17:21:44.606Z,25.19
2023-04-15T17:24:11.213Z,25.17
2023-04-15T17:26:37.737Z,25.23
2023-04-15T17:29:04.698Z,25.28
2023-04-15T17:31:31.458Z,25.31
2023-04-15T17:34:04.872Z,25.31
2023-04-15T17:36:36.172Z,25.31
2023-04-15T17:39:02.819Z,25.31
2023-04-15T17:41:29.540Z,25.30
2023-04-15T17:43:56.162Z,25.28
2023-04-15T17:46:22.711Z,25.26
2023-04-15T17:48:49.457Z,25.25
2023-04-15T17:51:17.014Z,25.24
2023-04-15T17:53:43.481Z,25.22
2023-04-15T17:56:10.019Z,25.21
2023-04-15T17:58:36.552Z,25.20
2023-04-15T18:01:03.086Z,25.18
2023-04-15T18:03:29.694Z,25.16
2023-04-15T18:05:56.504Z,25.15
2023-04-15T18:08:23.136Z,25.15
2023-04-15T18:10:49.629Z,25.12
2023-04-15T18:13:16.199Z,25.12
2023-04-15T18:15:44.605Z,25.11
2023-04-15T18:18:12.694Z,25.09
2023-04-15T18:20:39.155Z,25.08
2023-04-15T18:23:05.618Z,25.07
2023-04-15T18:25:32.243Z,25.07
2023-04-15T18:27:58.713Z,25.05
2023-04-15T18:30:25.178Z,25.06
2023-04-15T18:32:51.869Z,25.04
2023-04-15T18:35:18.590Z,25.02
2023-04-15T18:37:45.104Z,25.01
2023-04-15T18:40:11.724Z,25.00
2023-04-15T18:42:38.421Z,24.99
2023-04-15T18:45:05.118Z,24.99
2023-04-15T18:47:31.566Z,24.97
2023-04-15T18:49:58.502Z,24.96
2023-04-15T18:52:25.025Z,24.96
2023-04-15T18:54:51.543Z,24.95
2023-04-15T18:57:20.394Z,24.94
2023-04-15T18:59:58.225Z,24.94
2023-04-15T19:02:24.962Z,24.92
2023-04-15T19:04:51.497Z,24.92
2023-04-15T19:07:17.980Z,24.91
2023-04-15T19:09:44.619Z,24.89
2023-04-15T19:12:11.129Z,24.89
2023-04-15T19:14:37.581Z,24.89
2023-04-15T19:17:04.093Z,24.89
2023-04-15T19:19:31.760Z,24.87
2023-04-15T19:21:58.208Z,24.87
2023-04-15T19:24:24.680Z,24.85
2023-04-15T19:26:51.192Z,24.83
2023-04-15T19:29:18.335Z,24.84
2023-04-15T19:31:44.870Z,24.82
2023-04-15T19:34:11.315Z,24.81
2023-04-15T19:36:37.829Z,24.81
2023-04-15T19:39:04.994Z,24.80
2023-04-15T19:41:31.616Z,24.79
2023-04-15T19:43:58.230Z,24.78
2023-04-15T19:46:24.710Z,24.77
2023-04-15T19:48:51.317Z,24.77
2023-04-15T19:51:17.757Z,24.77
2023-04-15T19:53:44.316Z,24.75
2023-04-15T19:56:10.932Z,24.74
2023-04-15T19:58:37.646Z,24.75
2023-04-15T20:01:04.166Z,24.73
2023-04-15T20:03:30.982Z,24.73
2023-04-15T20:05:57.649Z,24.58
2023-04-15T20:08:24.137Z,24.71
2023-04-15T20:10:50.623Z,24.71
2023-04-15T20:13:17.097Z,24.69
2023-04-15T20:15:45.010Z,24.69
2023-04-15T20:18:11.585Z,24.70
2023-04-15T20:20:39.108Z,24.70
2023-04-15T20:23:05.623Z,24.69
2023-04-15T20:25:32.088Z,24.73
2023-04-15T20:28:00.984Z,24.75
2023-04-15T20:30:29.071Z,24.75
2023-04-15T20:32:55.736Z,24.75
2023-04-15T20:35:22.211Z,24.73
2023-04-15T20:37:48.807Z,24.73
2023-04-15T20:40:15.406Z,24.72
2023-04-15T20:42:43.645Z,24.71
2023-04-15T20:45:10.195Z,24.69
2023-04-15T20:47:36.721Z,24.68
2023-04-15T20:50:03.298Z,24.68
2023-04-15T20:52:29.789Z,24.67
2023-04-15T20:54:56.295Z,24.67
2023-04-15T20:57:24.580Z,24.65
2023-04-15T20:59:51.320Z,24.64
2023-04-15T21:02:18.297Z,24.63
2023-04-15T21:04:47.048Z,24.62
2023-04-15T21:07:13.600Z,24.62
2023-04-15T21:09:41.437Z,24.60
2023-04-15T21:12:07.996Z,24.61
2023-04-15T21:14:35.867Z,24.59
2023-04-15T21:17:08.511Z,24.59
2023-04-15T21:19:36.921Z,24.57
2023-04-15T21:22:03.528Z,24.58
2023-04-15T21:24:30.085Z,24.59
2023-04-15T21:26:57.229Z,24.58
2023-04-15T21:29:23.899Z,24.57
2023-04-15T21:31:50.547Z,24.57
2023-04-15T21:34:17.276Z,24.56
2023-04-15T21:36:43.748Z,24.55
2023-04-15T21:39:10.290Z,24.54
2023-04-15T21:41:37.044Z,24.54
2023-04-15T21:44:03.758Z,24.53
2023-04-15T21:46:32.569Z,24.53
2023-04-15T21:48:59.964Z,24.53
2023-04-15T21:51:26.761Z,24.52
2023-04-15T21:53:53.410Z,24.52
2023-04-15T21:56:24.185Z,24.52
2023-04-15T21:58:51.274Z,24.51
2023-04-15T22:01:17.791Z,24.52
2023-04-15T22:03:44.637Z,24.51
2023-04-15T22:06:11.546Z,24.50
2023-04-15T22:08:48.295Z,24.50
2023-04-15T22:11:26.535Z,24.49
2023-04-15T22:13:53.870Z,24.49
2023-04-15T22:16:20.579Z,24.48
2023-04-15T22:18:47.111Z,24.47
2023-04-15T22:21:13.705Z,24.47
2023-04-15T22:23:40.403Z,24.46
2023-04-15T22:26:07.095Z,24.46
2023-04-15T22:28:33.758Z,24.46
2023-04-15T22:31:00.309Z,24.46
2023-04-15T22:33:26.865Z,24.44
2023-04-15T22:35:53.311Z,24.44
2023-04-15T22:38:19.809Z,24.41
2023-04-15T22:40:46.359Z,24.42
2023-04-15T22:43:12.824Z,24.40
2023-04-15T22:45:39.325Z,24.39
2023-04-15T22:48:06.114Z,24.39
2023-04-15T22:50:32.610Z,24.39
2023-04-15T22:52:59.075Z,24.39
2023-04-15T22:55:26.046Z,24.38
2023-04-15T22:57:52.715Z,24.37
2023-04-15T23:00:19.183Z,24.38
2023-04-15T23:02:45.850Z,24.36
2023-04-15T23:05:13.383Z,24.37
2023-04-15T23:07:40.130Z,24.36
2023-04-15T23:10:08.109Z,24.36
2023-04-15T23:12:34.598Z,24.36
2023-04-15T23:15:01.290Z,24.35
2023-04-15T23:17:27.885Z,24.36
2023-04-15T23:19:56.689Z,24.35
2023-04-15T23:22:23.234Z,24.34
2023-04-15T23:24:49.699Z,24.35
2023-04-15T23:27:18.805Z,24.35
2023-04-15T23:29:46.017Z,24.33
2023-04-15T23:32:12.731Z,24.33
2023-04-15T23:34:39.199Z,24.34
2023-04-15T23:37:05.832Z,24.33
2023-04-15T23:39:32.412Z,24.32
2023-04-15T23:41:58.889Z,24.32
2023-04-15T23:44:25.420Z,24.30
2023-04-15T23:46:52.012Z,24.29
2023-04-15T23:49:20.228Z,24.30
2023-04-15T23:51:47.036Z,24.30
2023-04-15T23:54:14.680Z,24.30
2023-04-15T23:56:41.324Z,24.29
2023-04-15T23:59:07.948Z,24.29
